createdAt,value
2023-05-06T00:01:16.101Z,10.19
2023-05-06T00:04:22.761Z,10.09
2023-05-06T00:07:28.485Z,10.14
2023-05-06T00:10:35.332Z,10.02
2023-05-06T00:13:40.949Z,9.65
2023-05-06T00:16:51.222Z,9.84
2023-05-06T00:19:58.985Z,9.81
2023-05-06T00:23:05.610Z,9.68
2023-05-06T00:26:11.178Z,9.66
2023-05-06T00:29:17.611Z,10.14
2023-05-06T00:32:25.856Z,10.40
2023-05-06T00:35:32.269Z,10.49
2023-05-06T00:38:37.827Z,10.09
2023-05-06T00:41:46.902Z,9.84
2023-05-06T00:44:52.710Z,10.03
2023-05-06T00:48:03.059Z,9.87
2023-05-06T00:51:08.915Z,9.98
2023-05-06T00:54:18.665Z,9.86
2023-05-06T00:57:24.892Z,9.92
2023-05-06T01:00:31.605Z,9.86
2023-05-06T01:03:40.016Z,10.47
2023-05-06T01:07:02.569Z,10.52
2023-05-06T01:10:24.084Z,10.05
2023-05-06T01:13:45.694Z,9.60
2023-05-06T01:17:01.201Z,9.69
2023-05-06T01:20:15.576Z,9.73
2023-05-06T01:23:24.651Z,9.45
2023-05-06T01:26:31.132Z,9.52
2023-05-06T01:29:45.565Z,9.89
2023-05-06T01:33:11.322Z,10.52
2023-05-06T01:36:32.380Z,10.46
2023-05-06T01:39:46.630Z,10.04
2023-05-06T01:42:53.065Z,9.90
2023-05-06T01:46:01.271Z,10.50
2023-05-06T01:49:12.468Z,10.51
2023-05-06T01:52:19.470Z,10.57
2023-05-06T01:55:28.761Z,9.92
2023-05-06T01:58:34.317Z,10.07
2023-05-06T02:01:40.859Z,10.63
2023-05-06T02:04:46.595Z,10.02
2023-05-06T02:07:53.307Z,10.04
2023-05-06T02:11:04.789Z,9.66
2023-05-06T02:14:11.764Z,9.25
2023-05-06T02:17:17.473Z,8.95
2023-05-06T02:20:24.299Z,9.28
2023-05-06T02:23:30.047Z,9.12
2023-05-06T02:26:39.139Z,9.38
2023-05-06T02:29:45.084Z,9.35
2023-05-06T02:32:51.557Z,9.17
2023-05-06T02:35:57.180Z,9.10
2023-05-06T02:39:04.142Z,9.23
2023-05-06T02:42:13.309Z,9.64
2023-05-06T02:45:20.116Z,10.07
2023-05-06T02:48:25.883Z,9.93
2023-05-06T02:51:34.046Z,9.53
2023-05-06T02:54:39.643Z,9.50
2023-05-06T02:57:49.799Z,9.26
2023-05-06T03:00:55.856Z,9.51
2023-05-06T03:04:02.442Z,9.55
2023-05-06T03:07:08.197Z,9.59
2023-05-06T03:10:14.700Z,9.52
2023-05-06T03:13:23.359Z,9.97
2023-05-06T03:16:30.560Z,9.65
2023-05-06T03:19:38.534Z,9.57
2023-05-06T03:22:47.227Z,9.37
2023-05-06T03:25:53.156Z,9.51
2023-05-06T03:29:03.313Z,9.67
2023-05-06T03:32:10.161Z,9.18
2023-05-06T03:35:22.836Z,9.67
2023-05-06T03:38:33.039Z,9.37
2023-05-06T03:41:43.157Z,10.01
2023-05-06T03:44:52.023Z,10.10
2023-05-06T03:47:58.820Z,9.75
2023-05-06T03:51:05.666Z,10.03
2023-05-06T03:54:12.368Z,9.70
2023-05-06T03:57:18.499Z,10.06
2023-05-06T04:00:28.723Z,10.92
2023-05-06T04:03:34.493Z,11.23
2023-05-06T04:06:41.418Z,11.88
2023-05-06T04:09:47.436Z,11.75
2023-05-06T04:12:54.246Z,11.13
2023-05-06T04:16:09.881Z,10.46
2023-05-06T04:19:20.400Z,9.55
2023-05-06T04:22:26.862Z,9.92
2023-05-06T04:25:36.083Z,8.91
2023-05-06T04:28:41.921Z,9.54
2023-05-06T04:31:54.237Z,9.55
2023-05-06T04:35:01.171Z,10.27
2023-05-06T04:38:07.885Z,10.70
2023-05-06T04:41:14.252Z,10.40
2023-05-06T04:44:20.823Z,9.94
2023-05-06T04:47:32.437Z,9.33
2023-05-06T04:50:39.080Z,8.75
2023-05-06T04:53:44.911Z,8.95
2023-05-06T04:56:51.439Z,8.99
2023-05-06T04:59:59.142Z,8.85
2023-05-06T05:03:09.162Z,8.86
2023-05-06T05:06:15.840Z,8.86
2023-05-06T05:09:23.323Z,8.94
2023-05-06T05:12:29.248Z,9.14
2023-05-06T05:15:36.095Z,9.26
2023-05-06T05:18:45.173Z,9.19
2023-05-06T05:21:57.817Z,8.99
2023-05-06T05:25:06.960Z,8.88
2023-05-06T05:28:14.975Z,9.10
2023-05-06T05:31:21.804Z,9.12
2023-05-06T05:34:31.357Z,9.15
2023-05-06T05:37:38.077Z,9.11
2023-05-06T05:40:45.151Z,9.26
2023-05-06T05:43:51.075Z,8.93
2023-05-06T05:46:58.426Z,9.11
2023-05-06T05:50:07.504Z,9.30
2023-05-06T05:53:14.950Z,9.59
2023-05-06T05:56:20.884Z,9.14
2023-05-06T05:59:28.912Z,9.41
2023-05-06T06:02:39.210Z,9.55
2023-05-06T06:05:49.618Z,9.34
2023-05-06T06:08:56.276Z,9.32
2023-05-06T06:12:03.498Z,9.30
2023-05-06T06:15:12.826Z,8.87
2023-05-06T06:18:21.078Z,8.84
2023-05-06T06:21:29.820Z,8.59
2023-05-06T06:24:37.264Z,9.16
2023-05-06T06:27:43.213Z,9.00
2023-05-06T06:30:50.305Z,8.87
2023-05-06T06:33:56.473Z,8.94
2023-05-06T06:37:08.643Z,8.84
2023-05-06T06:40:16.536Z,8.82
2023-05-06T06:43:24.139Z,8.96
2023-05-06T06:46:36.343Z,8.80
2023-05-06T06:49:45.049Z,8.53
2023-05-06T06:52:53.212Z,9.07
2023-05-06T06:55:59.862Z,8.64
2023-05-06T06:59:05.512Z,8.76
2023-05-06T07:02:12.025Z,8.41
2023-05-06T07:05:21.742Z,8.88
2023-05-06T07:08:31.117Z,8.26
2023-05-06T07:11:36.752Z,8.33
2023-05-06T07:14:43.320Z,8.52
2023-05-06T07:17:49.307Z,8.05
2023-05-06T07:20:58.353Z,8.34
2023-05-06T07:24:06.985Z,8.40
2023-05-06T07:27:16.018Z,8.47
2023-05-06T07:30:23.190Z,8.11
2023-05-06T07:33:32.058Z,8.17
2023-05-06T07:36:43.680Z,7.99
2023-05-06T07:39:55.398Z,8.17
2023-05-06T07:43:01.087Z,8.14
2023-05-06T07:46:13.808Z,8.82
2023-05-06T07:49:19.651Z,9.16
2023-05-06T07:52:27.386Z,9.01
2023-05-06T07:55:37.866Z,9.82
2023-05-06T07:58:44.406Z,9.13
2023-05-06T08:01:50.046Z,8.69
2023-05-06T08:04:56.655Z,8.51
2023-05-06T08:08:02.587Z,8.57
2023-05-06T08:11:11.953Z,11.24
2023-05-06T08:14:17.657Z,9.98
2023-05-06T08:17:24.480Z,9.00
2023-05-06T08:20:30.334Z,8.84
2023-05-06T08:23:36.821Z,9.08
2023-05-06T08:26:45.177Z,8.57
2023-05-06T08:29:51.872Z,9.15
2023-05-06T08:32:57.559Z,8.91
2023-05-06T08:36:04.143Z,8.60
2023-05-06T08:39:09.677Z,9.07
2023-05-06T08:42:18.746Z,8.46
2023-05-06T08:45:25.902Z,8.69
2023-05-06T08:48:34.908Z,9.16
2023-05-06T08:51:45.435Z,8.65
2023-05-06T08:55:01.741Z,8.90
2023-05-06T08:58:11.433Z,8.67
2023-05-06T09:01:19.002Z,9.18
2023-05-06T09:04:25.466Z,9.23
2023-05-06T09:07:31.969Z,8.75
2023-05-06T09:10:46.796Z,9.04
2023-05-06T09:14:13.174Z,9.29
2023-05-06T09:17:28.292Z,8.47
2023-05-06T09:20:36.807Z,8.60
2023-05-06T09:23:42.656Z,8.63
2023-05-06T09:26:50.769Z,8.26
2023-05-06T09:30:07.931Z,8.55
2023-05-06T09:33:15.499Z,9.96
2023-05-06T09:36:21.512Z,10.20
2023-05-06T09:39:29.558Z,11.74
2023-05-06T09:42:35.975Z,13.11
2023-05-06T09:45:47.126Z,12.28
2023-05-06T09:48:56.055Z,13.61
2023-05-06T09:52:04.398Z,13.95
2023-05-06T09:55:13.971Z,13.28
2023-05-06T09:58:22.050Z,11.60
2023-05-06T10:01:37.114Z,11.62
2023-05-06T10:04:48.116Z,12.35
2023-05-06T10:07:59.578Z,11.96
2023-05-06T10:11:18.173Z,13.32
2023-05-06T10:14:29.015Z,13.40
2023-05-06T10:17:47.662Z,14.50
2023-05-06T10:20:56.403Z,14.70
2023-05-06T10:24:11.717Z,15.12
2023-05-06T10:27:27.049Z,18.48
2023-05-06T10:30:36.553Z,17.82
2023-05-06T10:33:51.816Z,16.38
2023-05-06T10:37:57.163Z,17.10
2023-05-06T10:41:06.278Z,16.01
2023-05-06T10:44:15.836Z,19.33
2023-05-06T10:47:25.012Z,21.50
2023-05-06T10:50:34.318Z,22.94
2023-05-06T10:54:08.334Z,17.93
2023-05-06T10:57:15.143Z,15.33
2023-05-06T11:00:24.718Z,14.57
2023-05-06T11:03:31.694Z,15.30
2023-05-06T11:07:11.988Z,15.66
2023-05-06T11:10:18.750Z,18.71
2023-05-06T11:13:28.313Z,20.48
2023-05-06T11:16:54.905Z,17.88
2023-05-06T11:20:29.557Z,18.12
2023-05-06T11:24:15.120Z,20.07
2023-05-06T11:27:26.273Z,19.76
2023-05-06T11:30:32.681Z,18.21
2023-05-06T11:33:40.526Z,18.08
2023-05-06T11:36:58.811Z,17.30
2023-05-06T11:40:19.901Z,16.02
2023-05-06T11:43:28.746Z,16.14
2023-05-06T11:46:37.479Z,17.00
2023-05-06T11:49:50.010Z,19.01
2023-05-06T11:52:56.988Z,17.45
2023-05-06T11:56:10.915Z,17.39
2023-05-06T11:59:17.009Z,17.91
2023-05-06T12:06:05.913Z,24.10
2023-05-06T12:09:28.398Z,31.51
2023-05-06T12:12:39.402Z,18.84
2023-05-06T12:15:52.077Z,19.23
2023-05-06T12:18:58.446Z,28.71
2023-05-06T12:22:21.026Z,25.58
2023-05-06T12:25:26.729Z,24.57
2023-05-06T12:28:42.788Z,24.22
2023-05-06T12:31:51.191Z,25.25
2023-05-06T12:35:08.174Z,25.75
2023-05-06T12:38:21.875Z,24.08
2023-05-06T12:41:43.117Z,23.77
2023-05-06T12:44:52.554Z,22.87
2023-05-06T12:48:05.417Z,21.67
2023-05-06T12:51:22.334Z,22.16
2023-05-06T12:54:37.580Z,23.45
2023-05-06T12:57:43.404Z,25.82
2023-05-06T13:00:52.701Z,25.90
2023-05-06T13:03:59.995Z,27.72
2023-05-06T13:07:06.795Z,29.87
2023-05-06T13:10:13.418Z,30.64
2023-05-06T13:13:26.574Z,39.55
2023-05-06T13:16:38.616Z,42.79
2023-05-06T13:19:47.285Z,35.38
2023-05-06T13:22:55.541Z,34.49
2023-05-06T13:26:07.166Z,32.72
2023-05-06T13:29:12.845Z,34.40
2023-05-06T13:32:21.998Z,32.24
2023-05-06T13:35:27.906Z,33.02
2023-05-06T13:38:34.763Z,36.21
2023-05-06T13:41:40.732Z,36.62
2023-05-06T13:44:47.183Z,41.45
2023-05-06T13:47:55.555Z,48.07
2023-05-06T13:51:02.189Z,47.15
2023-05-06T13:54:07.953Z,41.98
2023-05-06T13:57:14.273Z,39.71
2023-05-06T14:00:20.456Z,38.60
2023-05-06T14:03:29.512Z,39.16
2023-05-06T14:06:35.290Z,41.63
2023-05-06T14:09:41.695Z,50.21
2023-05-06T14:12:47.438Z,128.42
2023-05-06T14:15:53.841Z,96.91
2023-05-06T14:19:03.373Z,90.38
2023-05-06T14:22:09.744Z,91.16
2023-05-06T14:25:15.509Z,57.75
2023-05-06T14:28:21.953Z,43.39
2023-05-06T14:31:28.086Z,53.54
2023-05-06T14:34:38.047Z,52.16
2023-05-06T14:37:44.002Z,45.32
2023-05-06T14:40:50.450Z,48.00
2023-05-06T14:43:56.183Z,51.19
2023-05-06T14:47:02.504Z,41.40
2023-05-06T14:50:13.513Z,34.86
2023-05-06T14:53:19.954Z,30.09
2023-05-06T14:56:25.848Z,29.89
2023-05-06T14:59:32.209Z,28.11
2023-05-06T15:02:38.485Z,24.03
2023-05-06T15:05:47.487Z,26.00
2023-05-06T15:08:53.128Z,27.88
2023-05-06T15:12:00.265Z,28.19
2023-05-06T15:15:06.326Z,23.37
2023-05-06T15:18:13.519Z,24.15
2023-05-06T15:21:21.836Z,28.56
2023-05-06T15:24:28.295Z,38.93
2023-05-06T15:27:34.067Z,27.11
2023-05-06T15:30:40.856Z,32.80
2023-05-06T15:33:46.516Z,32.02
2023-05-06T15:36:56.994Z,26.54
2023-05-06T15:40:02.824Z,30.21
2023-05-06T15:43:09.315Z,26.85
2023-05-06T15:46:15.285Z,27.28
2023-05-06T15:52:33.102Z,26.63
2023-05-06T15:55:46.708Z,26.76
2023-05-06T15:58:58.764Z,26.82
2023-05-06T16:05:14.050Z,26.91
2023-05-06T16:08:23.273Z,25.35
2023-05-06T16:11:29.037Z,26.48
2023-05-06T16:14:37.064Z,25.66
2023-05-06T16:17:42.858Z,25.23
2023-05-06T16:20:49.368Z,25.45
2023-05-06T16:23:57.702Z,26.71
2023-05-06T16:27:05.939Z,27.53
2023-05-06T16:30:13.406Z,26.65
2023-05-06T16:33:19.882Z,25.87
2023-05-06T16:36:25.547Z,26.58
2023-05-06T16:39:34.524Z,25.84
2023-05-06T16:42:40.117Z,25.84
2023-05-06T16:45:46.573Z,26.74
2023-05-06T16:48:52.356Z,26.92
2023-05-06T16:52:00.768Z,29.38
2023-05-06T16:55:10.325Z,30.32
2023-05-06T16:58:16.783Z,29.83
2023-05-06T17:01:22.488Z,30.77
2023-05-06T17:04:29.072Z,31.06
2023-05-06T17:07:35.206Z,28.26
2023-05-06T17:10:44.184Z,27.23
2023-05-06T17:13:49.766Z,25.97
2023-05-06T17:16:56.537Z,26.84
2023-05-06T17:20:02.426Z,27.66
2023-05-06T17:23:08.871Z,25.87
2023-05-06T17:26:18.027Z,24.97
2023-05-06T17:29:24.425Z,24.14
2023-05-06T17:32:30.521Z,23.10
2023-05-06T17:35:37.184Z,22.95
2023-05-06T17:38:43.122Z,23.80
2023-05-06T17:41:53.056Z,22.62
2023-05-06T17:44:58.689Z,22.94
2023-05-06T17:48:05.024Z,23.30
2023-05-06T17:51:10.656Z,23.13
2023-05-06T17:54:17.182Z,21.87
2023-05-06T17:57:25.572Z,21.89
2023-05-06T18:00:32.042Z,21.33
2023-05-06T18:03:37.791Z,20.94
2023-05-06T18:06:45.363Z,22.02
2023-05-06T18:09:52.334Z,23.22
2023-05-06T18:13:01.491Z,23.24
2023-05-06T18:16:07.858Z,24.01
2023-05-06T18:19:14.375Z,24.13
2023-05-06T18:22:23.163Z,24.56
2023-05-06T18:25:29.485Z,23.48
2023-05-06T18:28:41.033Z,23.81
2023-05-06T18:31:47.506Z,24.72
2023-05-06T18:34:53.158Z,24.13
2023-05-06T18:37:59.851Z,23.85
2023-05-06T18:41:07.083Z,23.53
2023-05-06T18:44:16.069Z,23.65
2023-05-06T18:47:22.512Z,24.39
2023-05-06T18:50:28.955Z,24.04
2023-05-06T18:53:34.529Z,23.64
2023-05-06T18:56:42.009Z,22.93
2023-05-06T18:59:50.399Z,23.36
2023-05-06T19:02:56.964Z,23.26
2023-05-06T19:06:04.421Z,25.08
2023-05-06T19:09:11.439Z,24.88
2023-05-06T19:12:18.589Z,26.47
2023-05-06T19:15:27.710Z,25.33
2023-05-06T19:18:33.426Z,25.29
2023-05-06T19:21:40.561Z,24.38
2023-05-06T19:24:46.303Z,24.56
2023-05-06T19:27:52.935Z,24.81
2023-05-06T19:31:01.514Z,23.76
2023-05-06T19:34:08.712Z,24.91
2023-05-06T19:37:14.460Z,24.61
2023-05-06T19:40:22.137Z,26.92
2023-05-06T19:43:27.967Z,26.06
2023-05-06T19:46:37.084Z,25.74
2023-05-06T19:49:42.912Z,25.04
2023-05-06T19:52:49.291Z,26.31
2023-05-06T19:55:59.531Z,27.48
2023-05-06T19:59:05.857Z,27.55
2023-05-06T20:02:16.646Z,27.85
2023-05-06T20:05:23.512Z,28.34
2023-05-06T20:08:29.254Z,28.18
2023-05-06T20:11:35.978Z,28.18
2023-05-06T20:14:41.880Z,26.44
2023-05-06T20:17:50.976Z,26.29
2023-05-06T20:20:56.824Z,24.78
2023-05-06T20:24:03.332Z,24.80
2023-05-06T20:27:09.027Z,24.44
2023-05-06T20:30:15.984Z,24.62
2023-05-06T20:33:24.354Z,24.55
2023-05-06T20:36:31.123Z,24.65
2023-05-06T20:39:36.747Z,24.08
2023-05-06T20:42:43.351Z,24.37
2023-05-06T20:45:49.174Z,24.27
2023-05-06T20:48:59.133Z,23.89
2023-05-06T20:52:06.301Z,24.36
2023-05-06T20:55:14.910Z,24.80
2023-05-06T20:58:20.645Z,25.02
2023-05-06T21:01:28.257Z,23.57
2023-05-06T21:04:36.614Z,23.24
2023-05-06T21:07:43.030Z,23.83
2023-05-06T21:10:48.629Z,22.76
2023-05-06T21:13:55.063Z,22.92
2023-05-06T21:17:01.056Z,23.26
2023-05-06T21:20:12.322Z,22.30
2023-05-06T21:23:19.232Z,21.68
2023-05-06T21:26:25.830Z,19.73
2023-05-06T21:29:31.603Z,18.79
2023-05-06T21:32:38.100Z,17.79
2023-05-06T21:35:46.283Z,15.95
2023-05-06T21:39:03.855Z,16.37
2023-05-06T21:42:09.676Z,15.24
2023-05-06T21:45:16.467Z,15.35
2023-05-06T21:48:22.222Z,14.87
2023-05-06T21:51:35.243Z,14.79
2023-05-06T21:54:41.029Z,15.04
2023-05-06T21:57:47.568Z,14.40
2023-05-06T22:00:53.572Z,15.26
2023-05-06T22:04:00.801Z,15.80
2023-05-06T22:07:10.000Z,16.15
2023-05-06T22:10:16.773Z,16.20
2023-05-06T22:13:25.461Z,16.49
2023-05-06T22:16:34.593Z,16.13
2023-05-06T22:19:41.129Z,16.28
2023-05-06T22:22:54.443Z,17.57
2023-05-06T22:26:00.493Z,18.08
2023-05-06T22:29:07.033Z,17.77
2023-05-06T22:32:12.744Z,18.62
2023-05-06T22:35:19.370Z,19.34
2023-05-06T22:38:28.094Z,18.92
2023-05-06T22:41:34.490Z,19.43
2023-05-06T22:44:40.252Z,19.78
2023-05-06T22:47:46.997Z,19.98
2023-05-06T22:50:52.998Z,20.31
2023-05-06T22:54:02.203Z,20.52
2023-05-06T22:57:08.167Z,20.90
2023-05-06T23:00:17.488Z,21.24
2023-05-06T23:03:26.302Z,21.24
2023-05-06T23:06:33.406Z,21.65
2023-05-06T23:09:41.675Z,20.82
2023-05-06T23:12:48.151Z,20.15
2023-05-06T23:15:54.134Z,20.11
2023-05-06T23:19:00.571Z,20.86
2023-05-06T23:22:06.289Z,20.77
2023-05-06T23:25:16.578Z,19.60
2023-05-06T23:28:22.864Z,19.28
2023-05-06T23:31:29.340Z,19.10
2023-05-06T23:34:35.074Z,19.06
2023-05-06T23:37:41.605Z,19.13
2023-05-06T23:40:49.901Z,18.99
2023-05-06T23:43:56.372Z,18.78
2023-05-06T23:47:02.119Z,18.54
2023-05-06T23:50:12.977Z,18.19
2023-05-06T23:53:18.915Z,17.51
2023-05-06T23:56:27.936Z,17.09
2023-05-06T23:59:35.874Z,15.80
